createdAt,value
2023-03-31T00:01:09.336Z,6.03
2023-03-31T00:03:38.935Z,6.47
2023-03-31T00:06:07.049Z,6.50
2023-03-31T00:08:37.753Z,6.53
2023-03-31T00:11:07.480Z,6.80
2023-03-31T00:13:36.156Z,6.43
2023-03-31T00:16:06.560Z,5.68
2023-03-31T00:18:34.746Z,6.45
2023-03-31T00:21:14.641Z,5.97
2023-03-31T00:23:42.553Z,5.95
2023-03-31T00:26:09.922Z,5.70
2023-03-31T00:28:37.313Z,6.28
2023-03-31T00:31:05.340Z,6.30
2023-03-31T00:33:32.754Z,6.15
2023-03-31T00:36:02.077Z,5.70
2023-03-31T00:38:30.392Z,5.00
2023-03-31T00:40:58.890Z,7.05
2023-03-31T00:43:37.188Z,5.18
2023-03-31T00:46:29.656Z,5.15
2023-03-31T00:48:58.365Z,4.60
2023-03-31T00:51:32.408Z,4.35
2023-03-31T00:54:05.216Z,4.68
2023-03-31T00:56:37.905Z,4.68
2023-03-31T00:59:08.048Z,4.30
2023-03-31T01:01:36.732Z,4.80
2023-03-31T01:04:05.109Z,4.32
2023-03-31T01:06:32.888Z,4.50
2023-03-31T01:09:05.559Z,4.55
2023-03-31T01:11:34.890Z,5.45
2023-03-31T01:14:04.223Z,4.90
2023-03-31T01:16:34.064Z,5.03
2023-03-31T01:19:03.176Z,6.30
2023-03-31T01:21:37.613Z,6.30
2023-03-31T01:24:20.694Z,5.53
2023-03-31T01:27:03.486Z,5.60
2023-03-31T01:30:05.613Z,5.18
2023-03-31T01:32:55.628Z,5.20
2023-03-31T01:35:51.546Z,4.82
2023-03-31T01:38:52.935Z,4.72
2023-03-31T01:41:40.416Z,5.10
2023-03-31T01:44:46.214Z,4.80
2023-03-31T01:47:40.405Z,4.57
2023-03-31T01:50:20.302Z,4.15
2023-03-31T01:52:57.131Z,5.40
2023-03-31T01:55:31.073Z,4.93
2023-03-31T01:58:12.991Z,4.50
2023-03-31T02:00:45.496Z,4.43
2023-03-31T02:03:19.407Z,4.55
2023-03-31T02:05:56.472Z,3.90
2023-03-31T02:08:32.094Z,4.50
2023-03-31T02:11:00.493Z,3.78
2023-03-31T02:13:29.851Z,4.22
2023-03-31T02:16:01.522Z,3.37
2023-03-31T02:18:33.343Z,3.40
2023-03-31T02:21:01.378Z,3.47
2023-03-31T02:23:31.969Z,3.78
2023-03-31T02:26:10.291Z,4.05
2023-03-31T02:28:39.663Z,3.17
2023-03-31T02:31:44.361Z,3.60
2023-03-31T02:34:12.709Z,3.30
2023-03-31T02:36:41.958Z,3.33
2023-03-31T02:39:12.763Z,2.97
2023-03-31T02:41:40.621Z,3.67
2023-03-31T02:44:07.991Z,4.03
2023-03-31T02:46:35.758Z,3.00
2023-03-31T02:49:05.812Z,3.60
2023-03-31T02:52:10.981Z,3.03
2023-03-31T02:55:03.449Z,3.47
2023-03-31T02:57:37.457Z,3.45
2023-03-31T03:00:35.960Z,4.05
2023-03-31T03:03:06.917Z,3.53
2023-03-31T03:05:50.935Z,3.78
2023-03-31T03:08:34.209Z,3.62
2023-03-31T03:11:17.899Z,4.00
2023-03-31T03:13:52.747Z,4.18
2023-03-31T03:16:29.221Z,5.25
2023-03-31T03:18:58.366Z,4.65
2023-03-31T03:21:26.760Z,4.97
2023-03-31T03:23:54.862Z,4.78
2023-03-31T03:26:23.974Z,4.97
2023-03-31T03:28:51.903Z,5.40
2023-03-31T03:31:19.794Z,5.25
2023-03-31T03:33:47.202Z,5.12
2023-03-31T03:36:14.948Z,5.93
2023-03-31T03:38:42.473Z,5.65
2023-03-31T03:41:10.274Z,5.85
2023-03-31T03:43:37.920Z,5.87
2023-03-31T03:46:05.660Z,6.07
2023-03-31T03:48:33.357Z,5.30
2023-03-31T03:51:01.482Z,6.45
2023-03-31T03:53:28.887Z,5.82
2023-03-31T03:55:56.559Z,5.62
2023-03-31T03:58:24.232Z,5.25
2023-03-31T04:00:51.729Z,5.68
2023-03-31T04:03:19.454Z,5.07
2023-03-31T04:05:49.890Z,4.45
2023-03-31T04:08:18.451Z,4.30
2023-03-31T04:10:49.102Z,4.70
2023-03-31T04:13:17.217Z,4.10
2023-03-31T04:15:46.009Z,4.62
2023-03-31T04:18:25.810Z,5.03
2023-03-31T04:21:06.052Z,5.20
2023-03-31T04:23:35.147Z,5.62
2023-03-31T04:26:04.020Z,5.18
2023-03-31T04:28:35.041Z,6.00
2023-03-31T04:31:06.231Z,6.15
2023-03-31T04:33:40.131Z,5.95
2023-03-31T04:36:18.008Z,5.72
2023-03-31T04:39:02.595Z,5.50
2023-03-31T04:41:30.277Z,5.50
2023-03-31T04:43:57.654Z,5.00
2023-03-31T04:46:25.577Z,5.30
2023-03-31T04:48:53.378Z,4.65
2023-03-31T04:51:20.841Z,4.95
2023-03-31T04:53:49.359Z,6.05
2023-03-31T04:56:17.031Z,5.40
2023-03-31T04:58:44.723Z,5.37
2023-03-31T05:01:13.756Z,4.60
2023-03-31T05:03:42.439Z,4.97
2023-03-31T05:06:12.269Z,5.12
2023-03-31T05:08:39.649Z,4.72
2023-03-31T05:11:07.435Z,5.20
2023-03-31T05:13:34.836Z,5.37
2023-03-31T05:16:14.576Z,4.72
2023-03-31T05:18:43.815Z,4.40
2023-03-31T05:21:13.473Z,4.75
2023-03-31T05:23:41.393Z,4.20
2023-03-31T05:26:09.460Z,5.18
2023-03-31T05:28:37.146Z,4.87
2023-03-31T05:31:05.780Z,5.35
2023-03-31T05:33:34.024Z,5.07
2023-03-31T05:36:01.521Z,5.43
2023-03-31T05:38:31.302Z,5.03
2023-03-31T05:40:58.948Z,5.57
2023-03-31T05:43:26.454Z,4.93
2023-03-31T05:45:53.844Z,5.60
2023-03-31T05:48:21.734Z,5.25
2023-03-31T05:50:49.117Z,5.75
2023-03-31T05:53:16.645Z,5.55
2023-03-31T05:55:44.293Z,6.03
2023-03-31T05:58:11.703Z,5.53
2023-03-31T06:00:39.204Z,5.72
2023-03-31T06:03:07.980Z,7.28
2023-03-31T06:05:35.745Z,5.78
2023-03-31T06:08:03.728Z,6.45
2023-03-31T06:10:31.439Z,6.65
2023-03-31T06:12:58.857Z,6.30
2023-03-31T06:15:26.399Z,6.82
2023-03-31T06:17:54.141Z,6.32
2023-03-31T06:20:28.136Z,7.30
2023-03-31T06:22:56.274Z,6.65
2023-03-31T06:25:23.772Z,6.28
2023-03-31T06:27:51.177Z,5.93
2023-03-31T06:30:18.948Z,6.40
2023-03-31T06:32:46.375Z,6.18
2023-03-31T06:35:13.830Z,5.50
2023-03-31T06:37:41.489Z,6.30
2023-03-31T06:40:09.613Z,5.40
2023-03-31T06:42:36.997Z,5.90
2023-03-31T06:45:04.761Z,5.18
2023-03-31T06:47:32.200Z,5.45
2023-03-31T06:49:59.604Z,4.70
2023-03-31T06:52:27.260Z,5.22
2023-03-31T06:54:54.627Z,4.07
2023-03-31T06:57:22.098Z,5.43
2023-03-31T06:59:49.828Z,6.37
2023-03-31T07:02:17.169Z,7.15
2023-03-31T07:04:44.760Z,5.35
2023-03-31T07:07:12.553Z,5.10
2023-03-31T07:09:39.924Z,5.07
2023-03-31T07:12:07.328Z,4.62
2023-03-31T07:14:34.978Z,4.22
2023-03-31T07:17:02.821Z,4.57
2023-03-31T07:19:30.206Z,4.25
2023-03-31T07:21:57.910Z,4.12
2023-03-31T07:24:25.322Z,4.12
2023-03-31T07:26:52.708Z,3.87
2023-03-31T07:29:20.611Z,4.10
2023-03-31T07:31:48.777Z,4.20
2023-03-31T07:34:16.412Z,6.05
2023-03-31T07:36:44.163Z,5.50
2023-03-31T07:39:11.612Z,5.65
2023-03-31T07:41:39.131Z,5.50
2023-03-31T07:44:06.858Z,4.87
2023-03-31T07:46:34.283Z,5.15
2023-03-31T07:49:03.243Z,5.35
2023-03-31T07:51:30.952Z,5.87
2023-03-31T07:53:58.333Z,5.47
2023-03-31T07:56:26.109Z,5.57
2023-03-31T07:58:56.855Z,5.62
2023-03-31T08:01:26.298Z,5.32
2023-03-31T08:03:55.671Z,5.57
2023-03-31T08:06:25.332Z,5.60
2023-03-31T08:08:52.848Z,5.28
2023-03-31T08:11:21.440Z,5.40
2023-03-31T08:13:48.952Z,5.10
2023-03-31T08:16:16.461Z,4.78
2023-03-31T08:18:44.159Z,4.35
2023-03-31T08:21:11.627Z,5.53
2023-03-31T08:23:39.024Z,5.05
2023-03-31T08:26:17.866Z,5.07
2023-03-31T08:28:46.504Z,4.95
2023-03-31T08:31:16.381Z,4.45
2023-03-31T08:33:44.262Z,4.07
2023-03-31T08:36:11.866Z,3.83
2023-03-31T08:38:41.926Z,4.22
2023-03-31T08:41:45.467Z,3.87
2023-03-31T08:44:33.085Z,3.75
2023-03-31T08:47:02.083Z,4.07
2023-03-31T08:49:37.723Z,4.10
2023-03-31T08:52:10.274Z,3.58
2023-03-31T08:54:43.996Z,3.72
2023-03-31T08:57:27.313Z,3.60
2023-03-31T08:59:58.372Z,3.35
2023-03-31T09:02:37.321Z,2.97
2023-03-31T09:05:27.532Z,4.22
2023-03-31T09:08:00.713Z,3.95
2023-03-31T09:10:55.058Z,4.00
2023-03-31T09:13:47.600Z,3.72
2023-03-31T09:16:17.923Z,3.58
2023-03-31T09:18:48.200Z,2.95
2023-03-31T09:21:18.513Z,3.50
2023-03-31T09:23:57.609Z,3.50
2023-03-31T09:26:55.999Z,3.65
2023-03-31T09:29:47.411Z,3.37
2023-03-31T09:32:19.172Z,2.90
2023-03-31T09:34:48.160Z,3.00
2023-03-31T09:37:16.161Z,3.78
2023-03-31T09:39:43.755Z,3.12
2023-03-31T09:42:13.043Z,3.70
2023-03-31T09:44:43.693Z,3.78
2023-03-31T09:47:28.081Z,3.78
2023-03-31T09:49:56.120Z,3.20
2023-03-31T09:52:31.370Z,3.30
2023-03-31T09:55:06.364Z,3.92
2023-03-31T09:57:40.089Z,3.65
2023-03-31T10:00:18.926Z,4.10
2023-03-31T10:02:55.063Z,3.17
2023-03-31T10:05:30.535Z,3.15
2023-03-31T10:10:49.368Z,3.58
2023-03-31T10:13:39.140Z,2.62
2023-03-31T10:16:12.714Z,2.53
2023-03-31T10:18:42.776Z,2.53
2023-03-31T10:21:37.348Z,2.70
2023-03-31T10:24:10.775Z,3.17
2023-03-31T10:26:38.344Z,3.42
2023-03-31T10:29:13.493Z,3.67
2023-03-31T10:31:40.959Z,4.18
2023-03-31T10:34:15.549Z,3.72
2023-03-31T10:36:47.553Z,3.87
2023-03-31T10:39:16.981Z,4.57
2023-03-31T10:41:52.479Z,3.12
2023-03-31T10:47:22.091Z,3.35
2023-03-31T10:49:55.380Z,3.03
2023-03-31T10:52:27.334Z,1.87
2023-03-31T10:54:58.794Z,2.30
2023-03-31T10:57:29.172Z,2.67
2023-03-31T11:00:42.420Z,2.10
2023-03-31T11:03:29.954Z,2.90
2023-03-31T11:06:03.741Z,2.37
2023-03-31T11:08:36.947Z,2.75
2023-03-31T11:11:23.249Z,2.80
2023-03-31T11:14:08.623Z,2.58
2023-03-31T11:16:48.421Z,2.47
2023-03-31T11:19:46.472Z,2.90
2023-03-31T11:22:30.220Z,3.33
2023-03-31T11:25:07.029Z,3.70
2023-03-31T11:27:49.985Z,3.42
2023-03-31T11:30:26.152Z,3.12
2023-03-31T11:33:13.415Z,3.30
2023-03-31T11:35:54.362Z,4.18
2023-03-31T11:38:55.736Z,3.30
2023-03-31T11:41:45.561Z,4.53
2023-03-31T11:44:15.832Z,3.78
2023-03-31T11:46:49.157Z,3.47
2023-03-31T11:49:19.679Z,3.58
2023-03-31T11:52:03.077Z,3.25
2023-03-31T11:54:38.080Z,2.90
2023-03-31T11:57:14.186Z,2.62
2023-03-31T11:59:43.616Z,2.75
2023-03-31T12:02:18.410Z,2.67
2023-03-31T12:04:52.342Z,2.78
2023-03-31T12:07:28.696Z,2.67
2023-03-31T12:10:05.604Z,2.90
2023-03-31T12:12:35.922Z,2.40
2023-03-31T12:15:19.981Z,2.62
2023-03-31T12:17:54.168Z,2.58
2023-03-31T12:20:28.822Z,2.60
2023-03-31T12:22:58.357Z,2.40
2023-03-31T12:25:40.634Z,2.50
2023-03-31T12:28:09.231Z,2.60
2023-03-31T12:30:42.336Z,3.22
2023-03-31T12:33:20.541Z,3.17
2023-03-31T12:36:12.637Z,3.28
2023-03-31T12:39:18.296Z,3.53
2023-03-31T12:42:25.134Z,3.00
2023-03-31T12:45:00.365Z,3.10
2023-03-31T12:47:53.565Z,2.58
2023-03-31T12:50:30.373Z,2.70
2023-03-31T12:53:05.788Z,2.60
2023-03-31T12:56:00.654Z,2.35
2023-03-31T12:58:32.518Z,2.90
2023-03-31T13:01:17.418Z,2.47
2023-03-31T13:03:51.200Z,2.40
2023-03-31T13:06:27.685Z,2.25
2023-03-31T13:08:56.139Z,2.15
2023-03-31T13:11:38.812Z,1.98
2023-03-31T13:14:15.669Z,2.30
2023-03-31T13:16:43.578Z,2.00
2023-03-31T13:19:33.168Z,2.45
2023-03-31T13:22:02.672Z,2.50
2023-03-31T13:24:32.050Z,2.40
2023-03-31T13:27:33.214Z,2.35
2023-03-31T13:30:06.150Z,2.08
2023-03-31T13:32:33.674Z,1.98
2023-03-31T13:35:07.715Z,1.83
2023-03-31T13:37:38.188Z,2.00
2023-03-31T13:40:08.893Z,2.37
2023-03-31T13:42:51.662Z,2.42
2023-03-31T13:45:26.685Z,2.00
2023-03-31T13:48:12.592Z,2.42
2023-03-31T13:53:28.707Z,1.85
2023-03-31T13:56:07.307Z,2.97
2023-03-31T13:58:59.381Z,1.90
2023-03-31T14:01:41.258Z,1.80
2023-03-31T14:04:42.787Z,1.80
2023-03-31T14:07:20.670Z,1.80
2023-03-31T14:09:52.708Z,1.98
2023-03-31T14:12:29.777Z,2.05
2023-03-31T14:14:57.648Z,2.15
2023-03-31T14:17:30.536Z,1.77
2023-03-31T14:20:27.666Z,1.98
2023-03-31T14:23:22.433Z,1.90
2023-03-31T14:26:28.516Z,2.00
2023-03-31T14:29:01.500Z,1.80
2023-03-31T14:31:56.749Z,1.80
2023-03-31T14:34:53.764Z,2.17
2023-03-31T14:37:22.830Z,2.22
2023-03-31T14:39:53.883Z,2.10
2023-03-31T14:42:27.028Z,2.25
2023-03-31T14:45:04.047Z,2.12
2023-03-31T14:47:32.040Z,2.33
2023-03-31T14:50:19.026Z,2.30
2023-03-31T14:52:52.502Z,2.50
2023-03-31T14:55:26.607Z,2.28
2023-03-31T14:57:58.138Z,2.30
2023-03-31T15:00:29.321Z,2.55
2023-03-31T15:02:58.728Z,2.40
2023-03-31T15:05:30.538Z,2.28
2023-03-31T15:08:11.208Z,2.25
2023-03-31T15:10:41.052Z,2.40
2023-03-31T15:13:12.622Z,2.08
2023-03-31T15:15:40.052Z,2.15
2023-03-31T15:18:11.505Z,2.17
2023-03-31T15:20:41.597Z,2.28
2023-03-31T15:23:27.708Z,1.90
2023-03-31T15:26:03.660Z,1.90
2023-03-31T15:28:44.223Z,2.30
2023-03-31T15:31:13.846Z,2.62
2023-03-31T15:36:30.738Z,1.65
2023-03-31T15:38:59.119Z,1.95
2023-03-31T15:41:29.794Z,2.00
2023-03-31T15:44:29.781Z,2.37
2023-03-31T15:47:02.266Z,3.40
2023-03-31T15:49:30.157Z,2.30
2023-03-31T15:52:00.468Z,2.03
2023-03-31T15:54:40.362Z,2.12
2023-03-31T15:57:09.677Z,2.05
2023-03-31T16:02:44.116Z,2.12
2023-03-31T16:05:51.384Z,2.35
2023-03-31T16:08:44.887Z,1.90
2023-03-31T16:11:18.633Z,1.95
2023-03-31T16:13:52.789Z,1.90
2023-03-31T16:16:23.128Z,2.30
2023-03-31T16:18:52.572Z,2.08
2023-03-31T16:21:24.722Z,2.00
2023-03-31T16:23:54.380Z,2.10
2023-03-31T16:26:23.997Z,2.15
2023-03-31T16:28:54.133Z,2.05
2023-03-31T16:31:31.068Z,1.95
2023-03-31T16:33:58.572Z,1.90
2023-03-31T16:36:27.303Z,2.05
2023-03-31T16:38:54.952Z,1.90
2023-03-31T16:41:27.231Z,2.35
2023-03-31T16:43:55.477Z,2.90
2023-03-31T16:46:23.783Z,2.67
2023-03-31T16:48:52.370Z,1.98
2023-03-31T16:51:20.298Z,2.17
2023-03-31T16:53:48.349Z,1.92
2023-03-31T16:56:16.302Z,1.80
2023-03-31T16:58:44.068Z,1.90
2023-03-31T17:01:12.079Z,2.10
2023-03-31T17:03:41.724Z,2.35
2023-03-31T17:06:12.031Z,2.03
2023-03-31T17:08:40.574Z,2.28
2023-03-31T17:11:11.762Z,2.33
2023-03-31T17:13:41.117Z,2.47
2023-03-31T17:16:19.269Z,2.50
2023-03-31T17:18:53.131Z,3.95
2023-03-31T17:21:20.782Z,3.37
2023-03-31T17:23:50.100Z,2.62
2023-03-31T17:26:19.633Z,2.50
2023-03-31T17:28:47.940Z,2.58
2023-03-31T17:31:21.245Z,2.72
2023-03-31T17:33:49.490Z,2.90
2023-03-31T17:36:18.285Z,2.83
2023-03-31T17:38:46.401Z,2.75
2023-03-31T17:41:15.829Z,2.60
2023-03-31T17:43:51.130Z,2.67
2023-03-31T17:46:21.779Z,2.83
2023-03-31T17:48:49.922Z,2.58
2023-03-31T17:51:24.262Z,2.78
2023-03-31T17:53:52.961Z,3.58
2023-03-31T17:56:20.830Z,2.62
2023-03-31T17:58:49.073Z,2.53
2023-03-31T18:01:17.533Z,3.47
2023-03-31T18:03:46.553Z,3.10
2023-03-31T18:06:15.029Z,2.85
2023-03-31T18:08:43.078Z,3.10
2023-03-31T18:11:15.965Z,2.58
2023-03-31T18:13:43.975Z,2.83
2023-03-31T18:16:13.276Z,3.22
2023-03-31T18:18:42.727Z,3.42
2023-03-31T18:21:12.883Z,3.15
2023-03-31T18:23:43.481Z,3.40
2023-03-31T18:26:13.434Z,2.97
2023-03-31T18:28:42.157Z,2.90
2023-03-31T18:31:11.168Z,2.95
2023-03-31T18:33:40.000Z,2.47
2023-03-31T18:36:12.690Z,3.22
2023-03-31T18:38:41.686Z,3.72
2023-03-31T18:41:10.484Z,3.10
2023-03-31T18:43:39.413Z,2.97
2023-03-31T18:46:08.261Z,3.05
2023-03-31T18:48:37.322Z,3.17
2023-03-31T18:51:07.497Z,3.80
2023-03-31T18:53:38.093Z,4.00
2023-03-31T18:56:08.439Z,3.83
2023-03-31T18:58:37.978Z,3.55
2023-03-31T19:01:07.664Z,3.47
2023-03-31T19:03:36.395Z,3.40
2023-03-31T19:06:13.862Z,3.20
2023-03-31T19:08:42.318Z,2.75
2023-03-31T19:11:13.747Z,2.72
2023-03-31T19:13:43.699Z,2.90
2023-03-31T19:16:13.745Z,2.80
2023-03-31T19:18:44.096Z,3.22
2023-03-31T19:21:14.744Z,3.53
2023-03-31T19:23:43.723Z,3.50
2023-03-31T19:26:15.956Z,2.85
2023-03-31T19:28:47.541Z,2.37
2023-03-31T19:31:16.259Z,1.80
2023-03-31T19:33:45.168Z,1.80
2023-03-31T19:36:16.217Z,1.60
2023-03-31T19:38:45.201Z,1.98
2023-03-31T19:41:13.359Z,1.60
2023-03-31T19:43:42.176Z,1.40
2023-03-31T19:46:11.990Z,1.40
2023-03-31T19:48:40.157Z,1.25
2023-03-31T19:51:10.035Z,1.17
2023-03-31T19:53:41.742Z,1.17
2023-03-31T19:56:13.242Z,0.80
2023-03-31T19:58:42.477Z,0.88
2023-03-31T20:01:20.025Z,1.10
2023-03-31T20:03:53.773Z,1.20
2023-03-31T20:06:31.956Z,0.88
2023-03-31T20:09:02.464Z,1.27
2023-03-31T20:11:32.453Z,1.08
2023-03-31T20:14:04.288Z,1.35
2023-03-31T20:16:34.397Z,1.10
2023-03-31T20:19:05.481Z,1.00
2023-03-31T20:21:36.259Z,1.40
2023-03-31T20:24:05.040Z,0.88
2023-03-31T20:26:35.440Z,1.10
2023-03-31T20:29:04.466Z,0.90
2023-03-31T20:31:40.265Z,0.95
2023-03-31T20:34:13.054Z,1.05
2023-03-31T20:36:43.542Z,0.90
2023-03-31T20:39:13.862Z,1.15
2023-03-31T20:41:43.614Z,1.77
2023-03-31T20:44:15.124Z,1.20
2023-03-31T20:46:47.578Z,1.10
2023-03-31T20:49:16.062Z,1.20
2023-03-31T20:51:45.852Z,1.42
2023-03-31T20:54:13.643Z,1.50
2023-03-31T20:56:42.901Z,1.27
2023-03-31T20:59:13.433Z,1.33
2023-03-31T21:01:42.580Z,1.35
2023-03-31T21:04:11.429Z,1.17
2023-03-31T21:06:41.799Z,1.33
2023-03-31T21:09:09.939Z,1.25
2023-03-31T21:11:39.253Z,1.55
2023-03-31T21:14:07.703Z,1.40
2023-03-31T21:16:35.240Z,1.35
2023-03-31T21:19:02.666Z,1.50
2023-03-31T21:21:30.525Z,1.42
2023-03-31T21:23:57.927Z,1.55
2023-03-31T21:26:25.848Z,1.92
2023-03-31T21:28:54.495Z,1.90
2023-03-31T21:31:27.275Z,1.52
2023-03-31T21:33:57.614Z,1.58
2023-03-31T21:36:25.567Z,1.50
2023-03-31T21:38:54.031Z,1.50
2023-03-31T21:41:30.156Z,1.62
2023-03-31T21:44:00.431Z,1.48
2023-03-31T21:46:32.656Z,1.27
2023-03-31T21:49:01.228Z,1.80
2023-03-31T21:51:28.918Z,1.60
2023-03-31T21:53:56.964Z,1.30
2023-03-31T21:56:25.383Z,1.10
2023-03-31T21:58:53.297Z,1.30
2023-03-31T22:01:21.752Z,1.17
2023-03-31T22:03:50.253Z,1.30
2023-03-31T22:06:17.840Z,1.33
2023-03-31T22:08:45.732Z,1.23
2023-03-31T22:11:14.134Z,1.15
2023-03-31T22:13:41.601Z,1.30
2023-03-31T22:16:17.748Z,2.12
2023-03-31T22:18:47.106Z,1.02
2023-03-31T22:21:17.047Z,1.42
2023-03-31T22:23:44.810Z,1.20
2023-03-31T22:26:12.289Z,1.50
2023-03-31T22:28:39.719Z,1.87
2023-03-31T22:31:07.433Z,1.48
2023-03-31T22:33:34.863Z,1.55
2023-03-31T22:36:02.452Z,1.35
2023-03-31T22:38:31.504Z,1.17
2023-03-31T22:40:58.983Z,1.20
2023-03-31T22:43:27.230Z,1.17
2023-03-31T22:45:55.097Z,1.95
2023-03-31T22:48:22.781Z,1.40
2023-03-31T22:50:50.205Z,1.12
2023-03-31T22:53:17.873Z,1.15
2023-03-31T22:55:53.884Z,1.40
2023-03-31T22:58:22.649Z,1.23
2023-03-31T23:00:59.673Z,1.30
2023-03-31T23:03:27.537Z,1.20
2023-03-31T23:05:54.927Z,1.83
2023-03-31T23:08:22.922Z,1.48
2023-03-31T23:11:00.769Z,1.30
2023-03-31T23:13:29.063Z,1.20
2023-03-31T23:15:57.001Z,1.50
2023-03-31T23:18:24.495Z,1.30
2023-03-31T23:20:52.384Z,1.40
2023-03-31T23:23:20.094Z,1.20
2023-03-31T23:25:47.641Z,1.62
2023-03-31T23:28:15.014Z,1.70
2023-03-31T23:30:42.903Z,1.65
2023-03-31T23:33:10.315Z,1.60
2023-03-31T23:35:37.893Z,1.62
2023-03-31T23:38:06.323Z,1.73
2023-03-31T23:40:33.738Z,1.75
2023-03-31T23:43:01.114Z,1.95
2023-03-31T23:45:28.816Z,1.77
2023-03-31T23:47:56.283Z,2.05
2023-03-31T23:50:23.662Z,1.85
2023-03-31T23:52:51.354Z,1.77
2023-03-31T23:55:18.742Z,2.20
2023-03-31T23:57:46.389Z,2.42
